createdAt,value
2022-08-17T00:07:22.257Z,21.30
2022-08-17T00:17:24.618Z,21.10
2022-08-17T00:27:26.840Z,21.10
2022-08-17T00:37:29.337Z,20.80
2022-08-17T00:47:31.418Z,20.80
2022-08-17T00:57:41.098Z,20.90
2022-08-17T01:07:44.056Z,20.60
2022-08-17T01:17:48.840Z,20.50
2022-08-17T01:27:51.575Z,20.50
2022-08-17T01:37:54.058Z,20.30
2022-08-17T01:47:57.336Z,20.20
2022-08-17T01:58:00.818Z,20.00
2022-08-17T02:08:20.134Z,19.90
2022-08-17T02:18:23.294Z,19.70
2022-08-17T02:28:25.460Z,19.50
2022-08-17T02:38:27.749Z,19.60
2022-08-17T02:48:31.043Z,19.40
2022-08-17T02:58:35.746Z,19.30
2022-08-17T03:08:39.409Z,19.50
2022-08-17T03:18:41.405Z,19.30
2022-08-17T03:28:43.526Z,19.20
2022-08-17T03:38:45.391Z,19.10
2022-08-17T03:49:05.668Z,19.10
2022-08-17T03:59:07.731Z,19.00
2022-08-17T04:09:23.927Z,19.00
2022-08-17T04:19:25.951Z,18.90
2022-08-17T04:29:28.291Z,18.90
2022-08-17T04:40:10.443Z,18.90
2022-08-17T04:50:12.891Z,19.00
2022-08-17T05:00:15.689Z,19.00
2022-08-17T05:10:17.766Z,19.00
2022-08-17T05:20:19.489Z,19.20
2022-08-17T05:30:46.152Z,19.50
2022-08-17T05:40:57.095Z,19.40
2022-08-17T05:51:23.734Z,19.90
2022-08-17T06:01:57.371Z,20.20
2022-08-17T06:12:23.255Z,20.10
2022-08-17T06:22:31.789Z,20.20
2022-08-17T06:32:34.092Z,20.30
2022-08-17T06:43:02.269Z,20.40
2022-08-17T06:53:35.354Z,20.70
2022-08-17T07:03:47.490Z,21.20
2022-08-17T07:14:39.754Z,21.50
2022-08-17T07:25:07.731Z,21.30
2022-08-17T07:35:20.083Z,21.40
2022-08-17T07:45:42.432Z,21.50
2022-08-17T07:55:47.150Z,21.40
2022-08-17T08:05:58.971Z,21.20
2022-08-17T08:16:29.748Z,21.30
2022-08-17T08:26:52.351Z,21.30
2022-08-17T08:37:32.621Z,21.70
2022-08-17T08:47:48.641Z,22.20
2022-08-17T08:58:31.773Z,22.20
2022-08-17T09:09:04.273Z,22.50
2022-08-17T09:19:48.534Z,22.40
2022-08-17T09:30:02.382Z,22.40
2022-08-17T09:40:41.628Z,23.00
2022-08-17T09:51:04.035Z,23.50
2022-08-17T10:02:05.351Z,23.60
2022-08-17T10:12:29.723Z,24.10
2022-08-17T10:23:17.311Z,24.80
2022-08-17T10:33:30.433Z,24.30
2022-08-17T10:44:36.618Z,24.30
2022-08-17T10:54:28.908Z,24.00
2022-08-17T11:05:33.532Z,23.70
2022-08-17T11:15:43.072Z,24.00
2022-08-17T11:25:51.570Z,23.90
2022-08-17T11:36:17.011Z,24.40
2022-08-17T11:46:53.733Z,24.90
2022-08-17T11:57:02.970Z,25.40
2022-08-17T12:07:35.953Z,26.30
2022-08-17T12:17:50.774Z,27.10
2022-08-17T12:28:04.815Z,27.30
2022-08-17T12:38:31.934Z,27.20
2022-08-17T12:48:34.468Z,27.20
2022-08-17T12:58:57.052Z,27.10
2022-08-17T13:08:58.708Z,27.20
2022-08-17T13:19:18.090Z,26.80
2022-08-17T13:29:51.330Z,26.90
2022-08-17T13:39:59.084Z,27.30
2022-08-17T13:50:00.931Z,27.80
2022-08-17T14:00:32.912Z,27.60
2022-08-17T14:10:35.157Z,28.20
2022-08-17T14:20:37.671Z,29.00
2022-08-17T14:30:43.753Z,29.10
2022-08-17T14:40:50.073Z,29.40
2022-08-17T14:50:52.433Z,29.70
2022-08-17T15:00:54.331Z,29.40
2022-08-17T15:11:03.594Z,29.50
2022-08-17T15:21:14.652Z,29.60
2022-08-17T15:31:17.154Z,29.60
2022-08-17T15:41:21.434Z,29.70
2022-08-17T15:51:42.991Z,29.90
2022-08-17T16:03:15.264Z,29.90
2022-08-17T16:12:14.956Z,29.80
2022-08-17T16:22:18.170Z,29.30
2022-08-17T16:32:31.527Z,29.00
2022-08-17T16:42:36.894Z,28.80
2022-08-17T16:52:39.792Z,28.40
2022-08-17T17:02:49.191Z,28.30
2022-08-17T17:13:03.133Z,28.10
2022-08-17T17:23:39.109Z,28.00
2022-08-17T17:33:53.029Z,27.70
2022-08-17T17:44:09.431Z,27.50
2022-08-17T17:54:20.439Z,27.30
2022-08-17T18:04:39.071Z,27.20
2022-08-17T18:15:05.794Z,26.90
2022-08-17T18:25:46.552Z,26.50
2022-08-17T18:36:01.264Z,26.10
2022-08-17T18:46:30.008Z,25.60
2022-08-17T18:56:39.549Z,25.30
2022-08-17T19:06:42.891Z,25.00
2022-08-17T19:17:01.756Z,24.80
2022-08-17T19:27:34.923Z,24.60
2022-08-17T19:38:04.592Z,24.20
2022-08-17T19:48:50.789Z,24.20
2022-08-17T19:58:56.176Z,23.90
2022-08-17T20:09:36.990Z,23.60
2022-08-17T20:19:57.452Z,23.50
2022-08-17T20:30:11.250Z,23.20
2022-08-17T20:40:15.722Z,22.90
2022-08-17T20:50:37.252Z,22.80
2022-08-17T21:00:43.427Z,22.50
2022-08-17T21:10:48.828Z,22.30
2022-08-17T21:21:23.009Z,22.20
2022-08-17T21:32:02.130Z,22.00
2022-08-17T21:42:04.867Z,21.80
2022-08-17T21:52:09.610Z,21.80
2022-08-17T22:02:26.414Z,21.70
2022-08-17T22:12:28.512Z,21.70
2022-08-17T22:23:19.969Z,21.60
2022-08-17T22:33:50.073Z,21.50
2022-08-17T22:43:52.714Z,21.40
2022-08-17T22:54:22.848Z,21.30
2022-08-17T23:04:38.589Z,21.30
2022-08-17T23:14:42.902Z,21.30
2022-08-17T23:24:53.891Z,21.30
2022-08-17T23:34:55.732Z,21.10
2022-08-17T23:44:57.691Z,21.20
2022-08-17T23:54:59.437Z,21.00
